createdAt,value
2023-04-18T00:01:50.640Z,7.07
2023-04-18T00:04:20.525Z,7.09
2023-04-18T00:06:50.515Z,7.10
2023-04-18T00:09:20.168Z,7.11
2023-04-18T00:11:51.120Z,7.07
2023-04-18T00:14:21.124Z,7.08
2023-04-18T00:16:51.647Z,7.08
2023-04-18T00:19:21.617Z,7.05
2023-04-18T00:21:53.353Z,7.04
2023-04-18T00:24:22.980Z,7.03
2023-04-18T00:26:54.137Z,7.00
2023-04-18T00:29:23.687Z,7.01
2023-04-18T00:31:55.590Z,6.97
2023-04-18T00:34:25.100Z,7.00
2023-04-18T00:36:56.428Z,6.97
2023-04-18T00:39:25.899Z,6.94
2023-04-18T00:41:57.635Z,6.93
2023-04-18T00:44:27.153Z,6.89
2023-04-18T00:46:56.769Z,6.88
2023-04-18T00:49:28.127Z,6.87
2023-04-18T00:51:58.452Z,6.84
2023-04-18T00:54:28.843Z,6.82
2023-04-18T00:57:06.510Z,6.83
2023-04-18T00:59:36.646Z,6.83
2023-04-18T01:02:06.538Z,6.84
2023-04-18T01:04:37.267Z,6.83
2023-04-18T01:07:08.449Z,6.81
2023-04-18T01:09:38.307Z,6.79
2023-04-18T01:12:09.528Z,6.79
2023-04-18T01:14:43.652Z,6.78
2023-04-18T01:17:13.456Z,6.76
2023-04-18T01:19:43.092Z,6.72
2023-04-18T01:22:16.141Z,6.72
2023-04-18T01:24:47.040Z,6.71
2023-04-18T01:27:16.557Z,6.71
2023-04-18T01:29:46.121Z,6.71
2023-04-18T01:32:17.588Z,6.71
2023-04-18T01:34:48.030Z,6.68
2023-04-18T01:37:17.728Z,6.67
2023-04-18T01:39:49.516Z,6.67
2023-04-18T01:42:24.629Z,6.67
2023-04-18T01:44:54.133Z,6.64
2023-04-18T01:47:23.867Z,6.63
2023-04-18T01:49:53.609Z,6.61
2023-04-18T01:52:23.307Z,6.59
2023-04-18T01:54:54.501Z,6.58
2023-04-18T01:57:24.071Z,6.54
2023-04-18T01:59:53.671Z,6.58
2023-04-18T02:02:23.369Z,6.56
2023-04-18T02:04:54.533Z,6.55
2023-04-18T02:07:24.067Z,6.53
2023-04-18T02:09:55.084Z,6.52
2023-04-18T02:12:24.594Z,6.49
2023-04-18T02:14:54.982Z,6.48
2023-04-18T02:17:25.363Z,6.48
2023-04-18T02:19:57.473Z,6.45
2023-04-18T02:22:27.046Z,6.44
2023-04-18T02:24:57.866Z,6.43
2023-04-18T02:27:49.276Z,6.42
2023-04-18T02:30:18.749Z,6.41
2023-04-18T02:32:48.302Z,6.38
2023-04-18T02:35:17.782Z,6.38
2023-04-18T02:37:49.877Z,6.36
2023-04-18T02:40:21.840Z,6.33
2023-04-18T02:42:51.341Z,6.31
2023-04-18T02:45:20.999Z,6.29
2023-04-18T02:47:55.514Z,6.29
2023-04-18T02:50:27.045Z,6.28
2023-04-18T02:52:57.982Z,6.26
2023-04-18T02:55:35.999Z,6.25
2023-04-18T02:58:05.529Z,6.23
2023-04-18T03:01:01.125Z,6.22
2023-04-18T03:03:55.929Z,6.21
2023-04-18T03:06:35.380Z,6.20
2023-04-18T03:09:05.761Z,6.18
2023-04-18T03:11:39.447Z,6.15
2023-04-18T03:14:09.268Z,6.16
2023-04-18T03:17:04.839Z,6.13
2023-04-18T03:19:40.328Z,6.11
2023-04-18T03:22:14.059Z,6.10
2023-04-18T03:25:00.333Z,6.07
2023-04-18T03:27:53.963Z,6.01
2023-04-18T03:30:26.938Z,6.01
2023-04-18T03:32:58.689Z,5.97
2023-04-18T03:35:28.443Z,5.98
2023-04-18T03:37:58.576Z,5.96
2023-04-18T03:40:32.194Z,5.95
2023-04-18T03:43:11.793Z,5.93
2023-04-18T03:45:41.371Z,5.91
2023-04-18T03:48:10.854Z,5.93
2023-04-18T03:50:44.628Z,5.93
2023-04-18T03:53:14.431Z,5.92
2023-04-18T03:55:44.453Z,5.88
2023-04-18T03:58:23.472Z,5.86
2023-04-18T04:00:53.749Z,5.85
2023-04-18T04:03:23.408Z,5.83
2023-04-18T04:05:53.668Z,5.84
2023-04-18T04:08:23.680Z,5.82
2023-04-18T04:10:53.175Z,5.81
2023-04-18T04:13:24.144Z,5.79
2023-04-18T04:15:53.880Z,5.79
2023-04-18T04:18:29.796Z,5.76
2023-04-18T04:21:01.522Z,5.73
2023-04-18T04:23:43.196Z,5.74
2023-04-18T04:26:18.182Z,5.74
2023-04-18T04:28:57.402Z,5.71
2023-04-18T04:31:29.817Z,5.70
2023-04-18T04:33:59.858Z,5.67
2023-04-18T04:36:29.332Z,5.64
2023-04-18T04:39:02.678Z,5.58
2023-04-18T04:41:39.483Z,5.59
2023-04-18T04:44:10.879Z,5.58
2023-04-18T04:46:42.141Z,5.58
2023-04-18T04:49:17.507Z,5.57
2023-04-18T04:51:47.033Z,5.58
2023-04-18T04:54:16.703Z,5.59
2023-04-18T04:56:46.517Z,5.59
2023-04-18T04:59:17.589Z,5.60
2023-04-18T05:01:48.311Z,5.59
2023-04-18T05:04:18.429Z,5.61
2023-04-18T05:06:48.275Z,5.63
2023-04-18T05:09:17.874Z,5.63
2023-04-18T05:11:49.281Z,5.63
2023-04-18T05:14:20.766Z,5.65
2023-04-18T05:16:50.293Z,5.67
2023-04-18T05:19:19.878Z,5.65
2023-04-18T05:21:49.406Z,5.63
2023-04-18T05:24:19.331Z,5.64
2023-04-18T05:26:48.927Z,5.63
2023-04-18T05:29:19.737Z,5.64
2023-04-18T05:31:49.206Z,5.64
2023-04-18T05:34:18.640Z,5.62
2023-04-18T05:36:48.607Z,5.64
2023-04-18T05:39:18.137Z,5.65
2023-04-18T05:41:47.760Z,5.66
2023-04-18T05:44:18.093Z,5.68
2023-04-18T05:46:51.354Z,5.73
2023-04-18T05:49:21.029Z,5.76
2023-04-18T05:51:50.645Z,5.79
2023-04-18T05:54:21.453Z,5.83
2023-04-18T05:56:51.003Z,5.86
2023-04-18T05:59:20.747Z,5.89
2023-04-18T06:01:51.566Z,5.87
2023-04-18T06:04:22.073Z,5.88
2023-04-18T06:06:51.835Z,5.89
2023-04-18T06:09:21.360Z,5.93
2023-04-18T06:11:50.808Z,5.95
2023-04-18T06:14:20.234Z,6.03
2023-04-18T06:16:51.178Z,6.10
2023-04-18T06:19:20.684Z,6.14
2023-04-18T06:21:50.728Z,6.19
2023-04-18T06:24:20.378Z,6.27
2023-04-18T06:26:49.853Z,6.33
2023-04-18T06:29:19.454Z,6.40
2023-04-18T06:31:49.257Z,6.41
2023-04-18T06:34:20.126Z,6.45
2023-04-18T06:36:49.848Z,6.45
2023-04-18T06:39:19.344Z,6.47
2023-04-18T06:41:49.744Z,6.47
2023-04-18T06:44:32.099Z,6.54
2023-04-18T06:47:01.575Z,6.58
2023-04-18T06:49:32.552Z,6.64
2023-04-18T06:52:02.132Z,6.71
2023-04-18T06:54:31.846Z,6.81
2023-04-18T06:57:02.152Z,6.84
2023-04-18T06:59:31.724Z,6.91
2023-04-18T07:02:01.202Z,6.98
2023-04-18T07:04:32.053Z,7.01
2023-04-18T07:07:01.785Z,7.03
2023-04-18T07:09:31.336Z,7.10
2023-04-18T07:12:00.856Z,7.13
2023-04-18T07:14:32.251Z,7.19
2023-04-18T07:17:03.251Z,7.21
2023-04-18T07:19:34.159Z,7.22
2023-04-18T07:22:03.694Z,7.25
2023-04-18T07:24:33.132Z,7.29
2023-04-18T07:27:03.619Z,7.38
2023-04-18T07:29:33.144Z,7.43
2023-04-18T07:32:03.066Z,7.46
2023-04-18T07:34:36.044Z,7.50
2023-04-18T07:37:05.596Z,7.58
2023-04-18T07:39:36.175Z,7.59
2023-04-18T07:42:05.967Z,7.73
2023-04-18T07:44:37.166Z,7.89
2023-04-18T07:47:10.883Z,8.01
2023-04-18T07:49:41.758Z,8.13
2023-04-18T07:52:11.301Z,8.22
2023-04-18T07:54:40.760Z,8.29
2023-04-18T07:57:10.776Z,8.33
2023-04-18T07:59:40.921Z,8.42
2023-04-18T08:02:10.555Z,8.53
2023-04-18T08:04:41.617Z,8.70
2023-04-18T08:07:11.288Z,8.82
2023-04-18T08:09:41.003Z,8.98
2023-04-18T08:12:10.704Z,9.08
2023-04-18T08:14:40.256Z,9.27
2023-04-18T08:17:09.742Z,9.34
2023-04-18T08:19:39.218Z,9.38
2023-04-18T08:22:11.580Z,9.39
2023-04-18T08:24:57.242Z,9.40
2023-04-18T08:27:31.777Z,9.39
2023-04-18T08:30:03.968Z,9.37
2023-04-18T08:32:33.637Z,9.31
2023-04-18T08:35:03.809Z,9.29
2023-04-18T08:37:35.350Z,9.32
2023-04-18T08:40:07.215Z,9.38
2023-04-18T08:42:38.207Z,9.49
2023-04-18T08:45:09.617Z,9.63
2023-04-18T08:47:39.147Z,9.76
2023-04-18T08:50:12.653Z,9.84
2023-04-18T08:52:48.799Z,9.87
2023-04-18T08:55:19.059Z,9.80
2023-04-18T08:57:50.377Z,9.67
2023-04-18T09:00:20.737Z,9.66
2023-04-18T09:02:55.017Z,9.62
2023-04-18T09:05:27.488Z,9.62
2023-04-18T09:07:58.541Z,9.59
2023-04-18T09:10:32.925Z,9.64
2023-04-18T09:13:04.639Z,9.68
2023-04-18T09:15:34.411Z,9.72
2023-04-18T09:18:04.085Z,9.74
2023-04-18T09:20:41.187Z,9.76
2023-04-18T09:23:21.444Z,9.74
2023-04-18T09:25:53.222Z,9.71
2023-04-18T09:28:28.735Z,9.69
2023-04-18T09:31:01.828Z,9.67
2023-04-18T09:33:33.445Z,9.67
2023-04-18T09:36:19.953Z,9.66
2023-04-18T09:38:56.284Z,9.64
2023-04-18T09:41:27.068Z,9.65
2023-04-18T09:44:14.634Z,9.68
2023-04-18T09:46:47.124Z,9.77
2023-04-18T09:49:18.880Z,9.88
2023-04-18T09:51:51.757Z,10.03
2023-04-18T09:54:25.858Z,10.06
2023-04-18T09:56:56.395Z,10.13
2023-04-18T09:59:41.231Z,10.26
2023-04-18T10:02:51.966Z,10.27
2023-04-18T10:05:26.796Z,10.23
2023-04-18T10:07:56.958Z,10.25
2023-04-18T10:10:28.226Z,10.27
2023-04-18T10:13:00.126Z,10.34
2023-04-18T10:15:32.138Z,10.40
2023-04-18T10:18:06.211Z,10.46
2023-04-18T10:20:36.474Z,10.46
2023-04-18T10:23:48.648Z,10.52
2023-04-18T10:26:19.535Z,10.64
2023-04-18T10:28:56.849Z,10.72
2023-04-18T10:31:30.157Z,10.84
2023-04-18T10:36:33.014Z,11.14
2023-04-18T10:39:21.537Z,11.25
2023-04-18T10:41:52.828Z,11.45
2023-04-18T10:44:23.928Z,11.66
2023-04-18T10:47:22.943Z,11.71
2023-04-18T10:50:01.178Z,11.75
2023-04-18T10:52:32.291Z,11.85
2023-04-18T10:55:18.582Z,11.96
2023-04-18T10:57:51.693Z,12.11
2023-04-18T11:00:24.088Z,12.16
2023-04-18T11:02:57.818Z,12.28
2023-04-18T11:05:30.590Z,12.28
2023-04-18T11:08:00.200Z,12.30
2023-04-18T11:10:29.770Z,12.22
2023-04-18T11:13:04.618Z,12.21
2023-04-18T11:15:39.808Z,12.23
2023-04-18T11:18:11.108Z,12.27
2023-04-18T11:20:47.805Z,12.22
2023-04-18T11:23:20.929Z,12.20
2023-04-18T11:25:54.495Z,12.16
2023-04-18T11:28:25.972Z,12.03
2023-04-18T11:31:00.459Z,11.82
2023-04-18T11:33:31.272Z,11.81
2023-04-18T11:36:01.076Z,11.78
2023-04-18T11:38:31.794Z,11.74
2023-04-18T11:41:04.051Z,11.79
2023-04-18T11:43:35.372Z,11.80
2023-04-18T11:46:05.010Z,11.75
2023-04-18T11:48:37.937Z,11.78
2023-04-18T11:51:09.327Z,11.75
2023-04-18T11:53:40.225Z,11.71
2023-04-18T11:56:09.692Z,11.65
2023-04-18T11:58:40.551Z,11.62
2023-04-18T12:01:21.352Z,11.47
2023-04-18T12:04:12.076Z,11.49
2023-04-18T12:06:47.919Z,11.55
2023-04-18T12:09:18.076Z,11.65
2023-04-18T12:11:59.484Z,11.68
2023-04-18T12:14:31.389Z,11.71
2023-04-18T12:17:04.052Z,11.74
2023-04-18T12:19:34.271Z,11.69
2023-04-18T12:22:06.564Z,11.57
2023-04-18T12:24:37.912Z,11.55
2023-04-18T12:27:07.548Z,11.46
2023-04-18T12:29:38.378Z,11.47
2023-04-18T12:32:07.917Z,11.46
2023-04-18T12:34:37.341Z,11.49
2023-04-18T12:37:07.002Z,11.59
2023-04-18T12:39:36.443Z,11.70
2023-04-18T12:42:06.621Z,11.75
2023-04-18T12:44:37.894Z,11.81
2023-04-18T12:47:07.494Z,11.90
2023-04-18T12:49:37.122Z,11.99
2023-04-18T12:52:06.977Z,12.11
2023-04-18T12:54:37.982Z,12.18
2023-04-18T12:57:07.788Z,12.12
2023-04-18T12:59:38.646Z,12.13
2023-04-18T13:02:08.350Z,12.05
2023-04-18T13:04:37.937Z,12.04
2023-04-18T13:07:07.620Z,12.04
2023-04-18T13:09:37.577Z,12.03
2023-04-18T13:12:07.911Z,12.03
2023-04-18T13:14:39.108Z,11.96
2023-04-18T13:17:08.893Z,11.84
2023-04-18T13:19:38.373Z,11.74
2023-04-18T13:22:07.970Z,11.67
2023-04-18T13:24:37.485Z,11.67
2023-04-18T13:27:10.480Z,11.67
2023-04-18T13:29:43.826Z,11.61
2023-04-18T13:32:13.869Z,11.44
2023-04-18T13:34:46.648Z,11.42
2023-04-18T13:37:16.716Z,11.43
2023-04-18T13:39:46.325Z,11.46
2023-04-18T13:42:16.350Z,11.47
2023-04-18T13:44:48.072Z,11.58
2023-04-18T13:47:18.008Z,11.63
2023-04-18T13:49:47.528Z,11.63
2023-04-18T13:52:17.445Z,11.65
2023-04-18T13:54:47.052Z,11.67
2023-04-18T13:57:16.573Z,11.70
2023-04-18T13:59:47.357Z,11.63
2023-04-18T14:02:17.109Z,11.56
2023-04-18T14:04:46.816Z,11.56
2023-04-18T14:07:16.538Z,11.49
2023-04-18T14:09:46.097Z,11.46
2023-04-18T14:12:15.707Z,11.43
2023-04-18T14:14:46.535Z,11.45
2023-04-18T14:17:16.067Z,11.38
2023-04-18T14:19:45.485Z,11.37
2023-04-18T14:22:14.942Z,11.34
2023-04-18T14:24:44.403Z,11.25
2023-04-18T14:27:13.902Z,11.19
2023-04-18T14:29:43.342Z,11.20
2023-04-18T14:32:14.467Z,11.18
2023-04-18T14:34:43.952Z,11.16
2023-04-18T14:37:14.975Z,11.16
2023-04-18T14:39:45.178Z,11.18
2023-04-18T14:42:14.717Z,11.14
2023-04-18T14:44:44.222Z,11.07
2023-04-18T14:47:15.109Z,11.00
2023-04-18T14:49:44.571Z,10.95
2023-04-18T14:52:14.339Z,10.84
2023-04-18T14:54:43.965Z,10.73
2023-04-18T14:57:13.552Z,10.68
2023-04-18T14:59:43.049Z,10.61
2023-04-18T15:02:14.037Z,10.53
2023-04-18T15:04:44.004Z,10.45
2023-04-18T15:07:13.628Z,10.34
2023-04-18T15:09:43.174Z,10.33
2023-04-18T15:12:12.632Z,10.29
2023-04-18T15:14:42.265Z,10.21
2023-04-18T15:17:11.920Z,10.14
2023-04-18T15:19:42.845Z,10.07
2023-04-18T15:22:12.305Z,10.06
2023-04-18T15:24:41.980Z,10.02
2023-04-18T15:27:12.360Z,9.98
2023-04-18T15:29:41.846Z,9.96
2023-04-18T15:32:11.556Z,9.94
2023-04-18T15:34:42.414Z,9.91
2023-04-18T15:37:11.949Z,9.86
2023-04-18T15:39:41.414Z,9.81
2023-04-18T15:42:10.908Z,9.77
2023-04-18T15:44:40.371Z,9.72
2023-04-18T15:47:09.921Z,9.65
2023-04-18T15:49:39.351Z,9.60
2023-04-18T15:52:10.191Z,9.54
2023-04-18T15:54:42.787Z,9.52
2023-04-18T15:57:12.891Z,9.47
2023-04-18T15:59:42.318Z,9.44
2023-04-18T16:02:11.833Z,9.43
2023-04-18T16:04:41.410Z,9.43
2023-04-18T16:07:13.350Z,9.43
2023-04-18T16:09:42.916Z,9.41
2023-04-18T16:12:12.351Z,9.39
2023-04-18T16:14:41.847Z,9.36
2023-04-18T16:17:11.305Z,9.36
2023-04-18T16:19:41.025Z,9.36
2023-04-18T16:22:12.373Z,9.39
2023-04-18T16:24:42.358Z,9.35
2023-04-18T16:27:11.881Z,9.35
2023-04-18T16:29:41.363Z,9.33
2023-04-18T16:32:10.870Z,9.33
2023-04-18T16:34:40.416Z,9.28
2023-04-18T16:37:11.288Z,9.24
2023-04-18T16:39:40.817Z,9.21
2023-04-18T16:42:10.307Z,9.17
2023-04-18T16:44:40.330Z,9.16
2023-04-18T16:47:09.875Z,9.14
2023-04-18T16:49:39.418Z,9.13
2023-04-18T16:52:09.079Z,9.12
2023-04-18T16:54:40.620Z,9.11
2023-04-18T16:57:10.131Z,9.08
2023-04-18T16:59:39.572Z,9.07
2023-04-18T17:02:09.330Z,9.07
2023-04-18T17:04:39.084Z,9.08
2023-04-18T17:07:09.251Z,9.11
2023-04-18T17:09:40.047Z,9.13
2023-04-18T17:12:09.687Z,9.13
2023-04-18T17:14:39.160Z,9.12
2023-04-18T17:17:08.661Z,9.11
2023-04-18T17:19:38.132Z,9.13
2023-04-18T17:22:07.572Z,9.12
2023-04-18T17:24:37.260Z,9.11
2023-04-18T17:27:08.112Z,9.10
2023-04-18T17:29:37.612Z,9.09
2023-04-18T17:32:07.737Z,9.08
2023-04-18T17:34:37.351Z,9.07
2023-04-18T17:37:06.884Z,9.05
2023-04-18T17:39:36.525Z,9.01
2023-04-18T17:42:07.486Z,9.00
2023-04-18T17:44:39.626Z,8.97
2023-04-18T17:47:09.263Z,8.96
2023-04-18T17:49:38.777Z,8.94
2023-04-18T17:52:08.614Z,8.92
2023-04-18T17:54:38.258Z,8.93
2023-04-18T17:57:09.138Z,8.93
2023-04-18T17:59:38.649Z,8.93
2023-04-18T18:02:08.751Z,8.91
2023-04-18T18:04:39.474Z,8.90
2023-04-18T18:07:09.448Z,8.89
2023-04-18T18:09:39.073Z,8.88
2023-04-18T18:12:10.836Z,8.89
2023-04-18T18:14:41.285Z,8.87
2023-04-18T18:17:10.915Z,8.88
2023-04-18T18:19:40.525Z,8.85
2023-04-18T18:22:10.037Z,8.85
2023-04-18T18:24:39.619Z,8.84
2023-04-18T18:27:10.854Z,8.82
2023-04-18T18:29:40.407Z,8.81
2023-04-18T18:32:09.936Z,8.82
2023-04-18T18:34:39.410Z,8.79
2023-04-18T18:37:08.852Z,8.80
2023-04-18T18:39:38.332Z,8.80
2023-04-18T18:42:09.246Z,8.77
2023-04-18T18:44:52.037Z,8.76
2023-04-18T18:47:21.624Z,8.77
2023-04-18T18:49:51.178Z,8.77
2023-04-18T18:52:20.655Z,8.76
2023-04-18T18:54:50.125Z,8.74
2023-04-18T18:57:21.444Z,8.73
2023-04-18T18:59:51.550Z,8.72
2023-04-18T19:02:22.081Z,8.72
2023-04-18T19:04:51.685Z,8.72
2023-04-18T19:07:21.348Z,8.70
2023-04-18T19:09:50.962Z,8.69
2023-04-18T19:12:21.863Z,8.69
2023-04-18T19:14:51.612Z,8.69
2023-04-18T19:17:24.490Z,8.69
2023-04-18T19:19:57.894Z,8.69
2023-04-18T19:22:27.434Z,8.67
2023-04-18T19:24:57.266Z,8.69
2023-04-18T19:27:28.306Z,8.68
2023-04-18T19:29:57.836Z,8.66
2023-04-18T19:32:27.565Z,8.66
2023-04-18T19:34:57.064Z,8.65
2023-04-18T19:37:26.677Z,8.63
2023-04-18T19:39:56.159Z,8.64
2023-04-18T19:42:27.234Z,8.62
2023-04-18T19:44:57.227Z,8.61
2023-04-18T19:47:27.960Z,8.61
2023-04-18T19:49:57.548Z,8.59
2023-04-18T19:52:27.340Z,8.59
2023-04-18T19:54:56.910Z,8.58
2023-04-18T19:57:28.911Z,8.56
2023-04-18T19:59:58.409Z,8.53
2023-04-18T20:02:28.013Z,8.52
2023-04-18T20:04:57.808Z,8.47
2023-04-18T20:07:27.383Z,8.46
2023-04-18T20:09:57.002Z,8.45
2023-04-18T20:12:28.408Z,8.42
2023-04-18T20:14:58.983Z,8.39
2023-04-18T20:17:30.461Z,8.35
2023-04-18T20:20:00.686Z,8.35
2023-04-18T20:22:32.198Z,8.33
2023-04-18T20:25:01.794Z,8.31
2023-04-18T20:27:32.811Z,8.28
2023-04-18T20:30:02.349Z,8.27
2023-04-18T20:32:32.207Z,8.25
2023-04-18T20:35:02.712Z,8.24
2023-04-18T20:37:36.772Z,8.24
2023-04-18T20:40:11.091Z,8.20
2023-04-18T20:42:41.975Z,8.15
2023-04-18T20:45:12.287Z,8.11
2023-04-18T20:47:42.744Z,8.04
2023-04-18T20:50:14.022Z,7.99
2023-04-18T20:52:43.617Z,7.94
2023-04-18T20:55:13.660Z,7.88
2023-04-18T20:57:44.695Z,7.85
2023-04-18T21:00:16.034Z,7.82
2023-04-18T21:02:46.115Z,7.76
2023-04-18T21:05:15.586Z,7.73
2023-04-18T21:07:45.853Z,7.71
2023-04-18T21:10:15.839Z,7.69
2023-04-18T21:12:46.792Z,7.70
2023-04-18T21:15:16.508Z,7.68
2023-04-18T21:17:46.111Z,7.69
2023-04-18T21:20:15.886Z,7.70
2023-04-18T21:22:45.428Z,7.69
2023-04-18T21:25:16.461Z,7.69
2023-04-18T21:27:47.347Z,7.72
2023-04-18T21:30:16.814Z,7.71
2023-04-18T21:32:47.136Z,7.70
2023-04-18T21:35:19.378Z,7.71
2023-04-18T21:37:49.892Z,7.71
2023-04-18T21:40:19.891Z,7.70
2023-04-18T21:42:51.002Z,7.70
2023-04-18T21:45:20.623Z,7.70
2023-04-18T21:47:50.758Z,7.68
2023-04-18T21:50:20.470Z,7.67
2023-04-18T21:52:49.970Z,7.67
2023-04-18T21:55:19.683Z,7.67
2023-04-18T21:57:50.993Z,7.65
2023-04-18T22:00:21.455Z,7.66
2023-04-18T22:02:51.336Z,7.65
2023-04-18T22:05:21.370Z,7.66
2023-04-18T22:07:57.902Z,7.65
2023-04-18T22:10:27.936Z,7.67
2023-04-18T22:13:00.144Z,7.68
2023-04-18T22:15:30.051Z,7.65
2023-04-18T22:17:59.637Z,7.66
2023-04-18T22:20:29.472Z,7.67
2023-04-18T22:22:58.953Z,7.68
2023-04-18T22:25:28.450Z,7.67
2023-04-18T22:27:59.323Z,7.66
2023-04-18T22:30:29.352Z,7.66
2023-04-18T22:32:59.627Z,7.64
2023-04-18T22:35:29.443Z,7.65
2023-04-18T22:37:58.895Z,7.65
2023-04-18T22:40:28.509Z,7.63
2023-04-18T22:42:59.401Z,7.60
2023-04-18T22:45:28.955Z,7.60
2023-04-18T22:47:58.458Z,7.60
2023-04-18T22:50:28.035Z,7.59
2023-04-18T22:52:58.170Z,7.59
2023-04-18T22:55:27.698Z,7.58
2023-04-18T22:57:58.518Z,7.55
2023-04-18T23:00:28.100Z,7.54
2023-04-18T23:02:57.850Z,7.55
2023-04-18T23:05:27.602Z,7.54
2023-04-18T23:08:00.103Z,7.54
2023-04-18T23:10:30.326Z,7.55
2023-04-18T23:13:01.244Z,7.55
2023-04-18T23:15:30.877Z,7.55
2023-04-18T23:18:00.519Z,7.55
2023-04-18T23:20:29.976Z,7.56
2023-04-18T23:22:59.485Z,7.56
2023-04-18T23:25:29.298Z,7.58
2023-04-18T23:28:00.242Z,7.54
2023-04-18T23:30:29.776Z,7.53
2023-04-18T23:32:59.286Z,7.53
2023-04-18T23:35:28.905Z,7.52
2023-04-18T23:37:58.392Z,7.53
2023-04-18T23:40:27.918Z,7.51
2023-04-18T23:42:57.451Z,7.52
2023-04-18T23:45:28.810Z,7.51
2023-04-18T23:47:58.359Z,7.51
2023-04-18T23:50:27.938Z,7.50
2023-04-18T23:52:57.518Z,7.51
2023-04-18T23:55:27.057Z,7.48
2023-04-18T23:57:56.577Z,7.47
